createdAt,value
2022-08-24T00:00:46.231Z,21.50
2022-08-24T00:03:14.300Z,21.50
2022-08-24T00:05:42.319Z,21.50
2022-08-24T00:08:10.340Z,21.50
2022-08-24T00:10:38.536Z,21.40
2022-08-24T00:13:06.849Z,21.40
2022-08-24T00:15:36.437Z,21.40
2022-08-24T00:18:04.678Z,21.40
2022-08-24T00:20:33.400Z,21.30
2022-08-24T00:23:01.737Z,21.30
2022-08-24T00:25:29.684Z,21.30
2022-08-24T00:27:57.760Z,21.30
2022-08-24T00:30:25.903Z,21.30
2022-08-24T00:32:55.415Z,21.20
2022-08-24T00:35:24.451Z,21.20
2022-08-24T00:37:53.434Z,21.10
2022-08-24T00:40:24.329Z,21.10
2022-08-24T00:42:52.871Z,21.10
2022-08-24T00:45:22.068Z,21.10
2022-08-24T00:47:59.001Z,21.10
2022-08-24T00:50:32.747Z,21.10
2022-08-24T00:53:04.554Z,21.10
2022-08-24T00:55:36.125Z,21.00
2022-08-24T00:58:08.011Z,21.00
2022-08-24T01:00:45.495Z,21.00
2022-08-24T01:03:18.612Z,21.00
2022-08-24T01:05:46.979Z,21.00
2022-08-24T01:08:16.993Z,21.00
2022-08-24T01:10:47.728Z,20.90
2022-08-24T01:13:16.721Z,20.90
2022-08-24T01:15:48.855Z,20.90
2022-08-24T01:18:39.174Z,20.90
2022-08-24T01:21:15.537Z,20.90
2022-08-24T01:23:47.865Z,20.80
2022-08-24T01:26:20.283Z,20.80
2022-08-24T01:28:51.893Z,20.80
2022-08-24T01:31:22.188Z,20.80
2022-08-24T01:33:51.626Z,20.70
2022-08-24T01:36:28.389Z,20.70
2022-08-24T01:39:02.174Z,20.70
2022-08-24T01:41:30.267Z,20.60
2022-08-24T01:43:59.216Z,20.60
2022-08-24T01:46:27.959Z,20.60
2022-08-24T01:48:58.809Z,20.60
2022-08-24T01:51:27.336Z,20.60
2022-08-24T01:53:55.278Z,20.50
2022-08-24T01:56:24.639Z,20.40
2022-08-24T01:58:52.987Z,20.40
2022-08-24T02:01:21.231Z,20.40
2022-08-24T02:03:52.003Z,20.40
2022-08-24T02:06:20.108Z,20.30
2022-08-24T02:08:48.169Z,20.30
2022-08-24T02:11:16.168Z,20.30
2022-08-24T02:13:45.877Z,20.20
2022-08-24T02:16:14.267Z,20.20
2022-08-24T02:18:42.872Z,20.20
2022-08-24T02:21:11.957Z,20.20
2022-08-24T02:23:41.400Z,20.20
2022-08-24T02:26:11.494Z,20.10
2022-08-24T02:28:40.661Z,20.10
2022-08-24T02:31:11.940Z,20.10
2022-08-24T02:33:40.835Z,20.10
2022-08-24T02:36:25.290Z,20.10
2022-08-24T02:38:54.849Z,20.10
2022-08-24T02:41:25.772Z,20.00
2022-08-24T02:43:54.346Z,20.00
2022-08-24T02:46:27.861Z,20.00
2022-08-24T02:49:03.132Z,20.00
2022-08-24T02:51:44.821Z,19.90
2022-08-24T02:54:17.355Z,19.90
2022-08-24T02:56:45.379Z,19.80
2022-08-24T02:59:14.024Z,19.80
2022-08-24T03:01:43.800Z,19.80
2022-08-24T03:04:13.157Z,19.80
2022-08-24T03:06:41.171Z,19.80
2022-08-24T03:09:09.655Z,19.80
2022-08-24T03:11:38.250Z,19.70
2022-08-24T03:14:06.559Z,19.70
2022-08-24T03:16:36.660Z,19.70
2022-08-24T03:19:06.048Z,19.70
2022-08-24T03:21:34.312Z,19.70
2022-08-24T03:24:02.441Z,19.60
2022-08-24T03:26:30.476Z,19.60
2022-08-24T03:28:59.100Z,19.60
2022-08-24T03:31:28.180Z,19.60
2022-08-24T03:33:56.138Z,19.60
2022-08-24T03:36:25.543Z,19.50
2022-08-24T03:38:53.500Z,19.50
2022-08-24T03:41:21.484Z,19.50
2022-08-24T03:43:49.742Z,19.40
2022-08-24T03:46:21.390Z,19.40
2022-08-24T03:48:50.415Z,19.40
2022-08-24T03:51:21.403Z,19.40
2022-08-24T03:53:51.497Z,19.30
2022-08-24T03:56:19.717Z,19.30
2022-08-24T03:58:48.651Z,19.30
2022-08-24T04:01:18.020Z,19.20
2022-08-24T04:03:48.963Z,19.20
2022-08-24T04:06:22.987Z,19.20
2022-08-24T04:08:55.472Z,19.10
2022-08-24T04:11:25.669Z,19.10
2022-08-24T04:13:56.548Z,19.10
2022-08-24T04:16:25.804Z,19.10
2022-08-24T04:18:53.947Z,19.10
2022-08-24T04:21:25.101Z,19.00
2022-08-24T04:23:54.935Z,19.00
2022-08-24T04:26:44.077Z,19.00
2022-08-24T04:29:14.756Z,19.00
2022-08-24T04:31:43.930Z,19.00
2022-08-24T04:34:13.459Z,19.00
2022-08-24T04:36:42.410Z,18.90
2022-08-24T04:39:11.992Z,18.90
2022-08-24T04:41:41.796Z,18.90
2022-08-24T04:44:09.970Z,18.90
2022-08-24T04:46:38.862Z,18.90
2022-08-24T04:49:06.875Z,19.00
2022-08-24T04:51:36.590Z,18.90
2022-08-24T04:54:06.372Z,19.00
2022-08-24T04:56:36.479Z,19.00
2022-08-24T04:59:05.533Z,19.00
2022-08-24T05:01:33.768Z,19.00
2022-08-24T05:04:02.641Z,19.10
2022-08-24T05:06:32.378Z,19.10
2022-08-24T05:09:01.416Z,19.10
2022-08-24T05:11:29.528Z,19.10
2022-08-24T05:14:00.061Z,19.20
2022-08-24T05:16:28.759Z,19.20
2022-08-24T05:19:00.333Z,19.20
2022-08-24T05:21:28.524Z,19.20
2022-08-24T05:23:56.431Z,19.30
2022-08-24T05:26:26.134Z,19.30
2022-08-24T05:28:56.209Z,19.40
2022-08-24T05:31:27.830Z,19.40
2022-08-24T05:33:56.543Z,19.50
2022-08-24T05:36:26.943Z,19.50
2022-08-24T05:38:58.296Z,19.50
2022-08-24T05:41:26.912Z,19.60
2022-08-24T05:43:55.625Z,19.60
2022-08-24T05:46:25.004Z,19.70
2022-08-24T05:48:53.554Z,19.70
2022-08-24T05:51:22.108Z,19.80
2022-08-24T05:53:52.770Z,19.80
2022-08-24T05:56:21.373Z,19.80
2022-08-24T05:58:50.321Z,19.90
2022-08-24T06:01:21.620Z,19.90
2022-08-24T06:03:52.503Z,20.00
2022-08-24T06:06:21.891Z,20.00
2022-08-24T06:08:51.840Z,20.10
2022-08-24T06:11:29.887Z,20.10
2022-08-24T06:14:01.049Z,20.20
2022-08-24T06:16:29.524Z,20.30
2022-08-24T06:18:58.904Z,20.30
2022-08-24T06:21:28.661Z,20.40
2022-08-24T06:23:57.679Z,20.40
2022-08-24T06:26:42.964Z,20.40
2022-08-24T06:29:15.122Z,20.50
2022-08-24T06:31:46.635Z,20.60
2022-08-24T06:34:19.117Z,20.70
2022-08-24T06:36:47.646Z,20.70
2022-08-24T06:39:15.705Z,20.80
2022-08-24T06:41:45.152Z,20.80
2022-08-24T06:44:13.237Z,20.90
2022-08-24T06:46:41.328Z,20.90
2022-08-24T06:49:09.593Z,21.00
2022-08-24T06:51:39.035Z,21.10
2022-08-24T06:54:07.163Z,21.20
2022-08-24T06:56:37.340Z,21.20
2022-08-24T06:59:05.361Z,21.20
2022-08-24T07:01:33.758Z,21.30
2022-08-24T07:04:02.254Z,21.30
2022-08-24T07:06:30.343Z,21.40
2022-08-24T07:08:59.777Z,21.50
2022-08-24T07:11:27.914Z,21.60
2022-08-24T07:13:55.856Z,21.70
2022-08-24T07:16:24.272Z,21.80
2022-08-24T07:18:53.794Z,21.90
2022-08-24T07:21:22.102Z,22.00
2022-08-24T07:23:50.886Z,22.10
2022-08-24T07:26:23.003Z,22.20
2022-08-24T07:28:51.506Z,22.30
2022-08-24T07:31:21.099Z,22.40
2022-08-24T07:33:49.369Z,22.50
2022-08-24T07:36:22.619Z,22.60
2022-08-24T07:38:52.794Z,22.70
2022-08-24T07:41:51.548Z,22.90
2022-08-24T07:44:12.548Z,23.00
2022-08-24T07:46:41.821Z,23.10
2022-08-24T07:49:28.075Z,23.20
2022-08-24T07:51:59.183Z,23.40
2022-08-24T07:54:28.744Z,23.50
2022-08-24T07:57:02.176Z,23.70
2022-08-24T07:59:30.145Z,23.80
2022-08-24T08:01:58.872Z,23.90
2022-08-24T08:04:27.354Z,24.00
2022-08-24T08:09:24.596Z,24.30
2022-08-24T08:11:52.592Z,24.40
2022-08-24T08:14:21.973Z,24.50
2022-08-24T08:16:49.944Z,24.70
2022-08-24T08:19:18.283Z,24.70
2022-08-24T08:22:07.486Z,24.70
2022-08-24T08:24:36.028Z,24.90
2022-08-24T08:27:05.882Z,25.00
2022-08-24T08:29:36.478Z,25.20
2022-08-24T08:32:04.914Z,25.40
2022-08-24T08:34:32.982Z,25.50
2022-08-24T08:37:02.983Z,25.70
2022-08-24T08:39:31.575Z,25.80
2022-08-24T08:42:31.566Z,25.90
2022-08-24T08:45:18.325Z,26.10
2022-08-24T08:48:27.835Z,26.20
2022-08-24T08:51:46.945Z,26.40
2022-08-24T08:54:44.299Z,26.60
2022-08-24T08:57:36.436Z,26.70
2022-08-24T09:00:16.284Z,26.90
2022-08-24T09:03:14.267Z,27.10
2022-08-24T09:06:13.700Z,27.20
2022-08-24T09:09:03.135Z,27.40
2022-08-24T09:11:41.358Z,27.40
2022-08-24T09:14:33.796Z,27.50
2022-08-24T09:17:17.013Z,27.50
2022-08-24T09:20:00.509Z,27.60
2022-08-24T09:22:28.616Z,27.80
2022-08-24T09:25:26.737Z,28.20
2022-08-24T09:28:12.497Z,28.70
2022-08-24T09:31:03.539Z,29.30
2022-08-24T09:33:38.807Z,30.30
2022-08-24T09:36:12.426Z,31.50
2022-08-24T09:38:59.929Z,33.10
2022-08-24T09:42:01.255Z,35.60
2022-08-24T09:45:01.817Z,38.70
2022-08-24T09:47:59.960Z,41.90
2022-08-24T09:50:51.195Z,44.50
2022-08-24T09:53:54.734Z,46.70
2022-08-24T09:56:39.810Z,48.50
2022-08-24T09:59:32.985Z,49.70
2022-08-24T10:02:30.331Z,50.40
2022-08-24T10:05:13.519Z,51.00
2022-08-24T10:07:52.030Z,51.70
2022-08-24T10:10:33.126Z,52.40
2022-08-24T10:13:15.257Z,52.70
2022-08-24T10:15:48.935Z,52.80
2022-08-24T10:18:35.208Z,53.40
2022-08-24T10:21:25.492Z,54.10
2022-08-24T10:24:15.735Z,54.60
2022-08-24T10:27:04.666Z,55.20
2022-08-24T10:29:46.803Z,55.30
2022-08-24T10:32:27.232Z,55.20
2022-08-24T10:35:04.363Z,55.40
2022-08-24T10:37:52.018Z,54.70
2022-08-24T10:40:34.896Z,53.60
2022-08-24T10:43:35.602Z,53.10
2022-08-24T10:46:36.578Z,53.40
2022-08-24T10:49:57.277Z,53.80
2022-08-24T10:53:15.506Z,54.30
2022-08-24T10:55:45.707Z,54.50
2022-08-24T10:58:41.560Z,54.10
2022-08-24T11:01:21.308Z,53.40
2022-08-24T11:03:53.421Z,53.20
2022-08-24T11:06:24.321Z,52.80
2022-08-24T11:08:56.145Z,52.30
2022-08-24T11:11:29.540Z,52.20
2022-08-24T11:14:00.417Z,52.10
2022-08-24T11:16:32.475Z,51.70
2022-08-24T11:19:02.600Z,50.90
2022-08-24T11:21:41.687Z,50.30
2022-08-24T11:24:14.091Z,49.60
2022-08-24T11:26:55.982Z,48.20
2022-08-24T11:29:27.956Z,46.90
2022-08-24T11:31:56.387Z,45.80
2022-08-24T11:34:34.068Z,45.00
2022-08-24T11:37:02.595Z,44.20
2022-08-24T11:39:35.534Z,43.50
2022-08-24T11:42:15.551Z,42.50
2022-08-24T11:44:50.750Z,41.80
2022-08-24T11:47:35.238Z,41.00
2022-08-24T11:50:15.532Z,40.30
2022-08-24T11:52:53.925Z,39.40
2022-08-24T11:55:30.656Z,38.60
2022-08-24T11:58:29.184Z,38.10
2022-08-24T12:01:03.836Z,37.50
2022-08-24T12:03:47.369Z,36.80
2022-08-24T12:06:32.309Z,36.20
2022-08-24T12:09:06.744Z,35.60
2022-08-24T12:11:44.274Z,35.40
2022-08-24T12:14:21.910Z,35.00
2022-08-24T12:16:56.597Z,34.80
2022-08-24T12:19:29.792Z,34.50
2022-08-24T12:22:03.231Z,34.30
2022-08-24T12:24:35.266Z,34.20
2022-08-24T12:27:10.650Z,34.10
2022-08-24T12:29:44.612Z,34.10
2022-08-24T12:32:16.573Z,34.10
2022-08-24T12:34:55.874Z,34.10
2022-08-24T12:37:30.871Z,34.20
2022-08-24T12:40:08.769Z,34.10
2022-08-24T12:42:48.708Z,34.20
2022-08-24T12:45:23.161Z,34.30
2022-08-24T12:48:03.727Z,34.30
2022-08-24T12:50:40.980Z,34.40
2022-08-24T12:53:30.260Z,34.40
2022-08-24T12:56:40.087Z,34.50
2022-08-24T12:59:17.371Z,34.50
2022-08-24T13:01:49.657Z,34.60
2022-08-24T13:04:32.032Z,34.70
2022-08-24T13:07:03.421Z,34.60
2022-08-24T13:09:34.788Z,34.80
2022-08-24T13:12:36.247Z,34.90
2022-08-24T13:15:28.058Z,35.10
2022-08-24T13:18:03.287Z,35.30
2022-08-24T13:20:56.324Z,35.50
2022-08-24T13:23:27.793Z,35.50
2022-08-24T13:25:59.225Z,35.60
2022-08-24T13:28:45.731Z,35.70
2022-08-24T13:31:25.801Z,35.80
2022-08-24T13:34:00.090Z,35.90
2022-08-24T13:39:59.887Z,36.10
2022-08-24T13:42:44.958Z,36.10
2022-08-24T13:45:26.847Z,36.10
2022-08-24T13:48:14.065Z,36.10
2022-08-24T13:50:49.794Z,36.20
2022-08-24T13:53:49.747Z,36.30
2022-08-24T13:56:48.642Z,36.50
2022-08-24T13:59:37.218Z,36.60
2022-08-24T14:02:21.130Z,36.80
2022-08-24T14:04:56.288Z,36.90
2022-08-24T14:07:28.030Z,36.90
2022-08-24T14:10:07.968Z,36.80
2022-08-24T14:12:52.406Z,36.90
2022-08-24T14:15:29.575Z,37.00
2022-08-24T14:18:10.088Z,37.30
2022-08-24T14:20:59.949Z,37.50
2022-08-24T14:23:50.082Z,37.60
2022-08-24T14:26:57.788Z,37.80
2022-08-24T14:29:40.555Z,37.90
2022-08-24T14:32:40.589Z,37.80
2022-08-24T14:35:28.989Z,37.80
2022-08-24T14:38:12.468Z,37.80
2022-08-24T14:40:56.235Z,38.00
2022-08-24T14:43:31.281Z,38.10
2022-08-24T14:46:10.425Z,38.20
2022-08-24T14:48:50.660Z,38.40
2022-08-24T14:51:39.138Z,38.60
2022-08-24T14:54:23.731Z,38.50
2022-08-24T14:57:06.384Z,38.40
2022-08-24T14:59:47.875Z,38.10
2022-08-24T15:03:02.893Z,38.00
2022-08-24T15:05:40.571Z,37.70
2022-08-24T15:08:11.783Z,37.40
2022-08-24T15:10:51.167Z,37.30
2022-08-24T15:13:28.570Z,37.40
2022-08-24T15:16:02.372Z,37.40
2022-08-24T15:18:39.084Z,37.50
2022-08-24T15:21:17.862Z,37.70
2022-08-24T15:24:01.163Z,37.80
2022-08-24T15:26:39.312Z,37.70
2022-08-24T15:29:15.161Z,37.60
2022-08-24T15:31:55.418Z,37.40
2022-08-24T15:34:35.988Z,37.30
2022-08-24T15:37:04.020Z,37.20
2022-08-24T15:39:32.831Z,37.10
2022-08-24T15:42:05.308Z,37.10
2022-08-24T15:44:33.733Z,36.80
2022-08-24T15:47:04.896Z,36.60
2022-08-24T15:49:39.514Z,36.50
2022-08-24T15:52:27.510Z,36.40
2022-08-24T15:55:01.170Z,36.40
2022-08-24T15:57:31.857Z,36.50
2022-08-24T16:00:09.320Z,36.50
2022-08-24T16:02:38.749Z,36.50
2022-08-24T16:05:20.659Z,36.50
2022-08-24T16:08:11.462Z,36.60
2022-08-24T16:10:42.080Z,36.60
2022-08-24T16:13:16.303Z,36.50
2022-08-24T16:15:49.590Z,36.40
2022-08-24T16:18:20.226Z,36.30
2022-08-24T16:20:50.977Z,36.20
2022-08-24T16:23:26.788Z,36.20
2022-08-24T16:26:21.302Z,36.20
2022-08-24T16:28:51.374Z,36.10
2022-08-24T16:31:44.321Z,36.00
2022-08-24T16:34:20.677Z,35.90
2022-08-24T16:36:50.081Z,35.80
2022-08-24T16:39:18.053Z,35.60
2022-08-24T16:41:46.052Z,35.50
2022-08-24T16:44:14.128Z,35.40
2022-08-24T16:46:42.865Z,35.30
2022-08-24T16:49:16.077Z,35.10
2022-08-24T16:51:45.331Z,35.00
2022-08-24T16:54:15.056Z,34.90
2022-08-24T16:56:43.609Z,34.70
2022-08-24T16:59:14.667Z,34.60
2022-08-24T17:01:42.657Z,34.50
2022-08-24T17:04:10.722Z,34.30
2022-08-24T17:06:38.788Z,34.20
2022-08-24T17:09:06.731Z,34.00
2022-08-24T17:11:38.182Z,34.00
2022-08-24T17:14:06.981Z,33.90
2022-08-24T17:16:35.120Z,33.80
2022-08-24T17:19:07.839Z,33.70
2022-08-24T17:21:36.101Z,33.60
2022-08-24T17:24:04.436Z,33.60
2022-08-24T17:26:32.963Z,33.50
2022-08-24T17:29:05.312Z,33.40
2022-08-24T17:31:33.802Z,33.40
2022-08-24T17:34:01.885Z,33.20
2022-08-24T17:36:32.228Z,33.20
2022-08-24T17:39:01.349Z,33.10
2022-08-24T17:41:29.637Z,33.10
2022-08-24T17:43:58.479Z,33.00
2022-08-24T17:46:29.469Z,32.90
2022-08-24T17:48:59.385Z,32.80
2022-08-24T17:51:27.375Z,32.70
2022-08-24T17:53:55.367Z,32.60
2022-08-24T17:56:23.442Z,32.50
2022-08-24T17:59:08.855Z,32.40
2022-08-24T18:01:38.456Z,32.30
2022-08-24T18:04:06.593Z,32.20
2022-08-24T18:06:35.073Z,32.00
2022-08-24T18:09:07.327Z,32.00
2022-08-24T18:11:35.300Z,31.90
2022-08-24T18:14:03.423Z,31.70
2022-08-24T18:16:32.185Z,31.60
2022-08-24T18:19:02.484Z,31.50
2022-08-24T18:21:30.529Z,31.40
2022-08-24T18:24:01.377Z,31.30
2022-08-24T18:26:31.229Z,31.20
2022-08-24T18:29:07.778Z,31.10
2022-08-24T18:31:36.536Z,30.90
2022-08-24T18:34:05.962Z,30.80
2022-08-24T18:36:33.964Z,30.60
2022-08-24T18:39:06.522Z,30.50
2022-08-24T18:41:38.444Z,30.30
2022-08-24T18:44:08.694Z,30.20
2022-08-24T18:46:43.973Z,30.00
2022-08-24T18:49:13.476Z,29.90
2022-08-24T18:51:42.060Z,29.70
2022-08-24T18:54:14.059Z,29.60
2022-08-24T18:56:42.096Z,29.50
2022-08-24T18:59:12.411Z,29.40
2022-08-24T19:01:54.707Z,29.30
2022-08-24T19:04:29.439Z,29.20
2022-08-24T19:07:01.303Z,29.00
2022-08-24T19:09:33.998Z,28.90
2022-08-24T19:12:02.517Z,28.80
2022-08-24T19:14:30.553Z,28.70
2022-08-24T19:16:58.612Z,28.60
2022-08-24T19:19:28.000Z,28.50
2022-08-24T19:21:56.256Z,28.40
2022-08-24T19:24:27.504Z,28.30
2022-08-24T19:26:55.691Z,28.10
2022-08-24T19:29:54.002Z,28.00
2022-08-24T19:32:22.872Z,28.00
2022-08-24T19:34:53.420Z,27.80
2022-08-24T19:37:22.366Z,27.80
2022-08-24T19:39:51.165Z,27.70
2022-08-24T19:42:19.555Z,27.50
2022-08-24T19:45:05.005Z,27.50
2022-08-24T19:47:34.505Z,27.40
2022-08-24T19:50:07.751Z,27.30
2022-08-24T19:52:36.954Z,27.20
2022-08-24T19:55:06.957Z,27.20
2022-08-24T19:57:44.846Z,27.10
2022-08-24T20:00:26.650Z,27.00
2022-08-24T20:02:56.124Z,26.90
2022-08-24T20:05:28.887Z,26.80
2022-08-24T20:07:57.559Z,26.70
2022-08-24T20:10:26.489Z,26.60
2022-08-24T20:12:54.763Z,26.50
2022-08-24T20:15:24.862Z,26.50
2022-08-24T20:17:53.756Z,26.40
2022-08-24T20:20:23.265Z,26.30
2022-08-24T20:22:52.668Z,26.30
2022-08-24T20:25:21.031Z,26.20
2022-08-24T20:27:58.081Z,26.10
2022-08-24T20:30:38.609Z,26.00
2022-08-24T20:33:10.821Z,26.00
2022-08-24T20:35:40.233Z,25.90
2022-08-24T20:38:09.680Z,25.80
2022-08-24T20:40:37.825Z,25.70
2022-08-24T20:43:07.071Z,25.70
2022-08-24T20:45:35.793Z,25.60
2022-08-24T20:48:04.914Z,25.60
2022-08-24T20:50:34.458Z,25.50
2022-08-24T20:53:02.459Z,25.40
2022-08-24T20:55:32.818Z,25.40
2022-08-24T20:58:03.306Z,25.40
2022-08-24T21:00:31.514Z,25.30
2022-08-24T21:02:59.640Z,25.30
2022-08-24T21:05:27.595Z,25.20
2022-08-24T21:07:57.747Z,25.20
2022-08-24T21:10:27.286Z,25.10
2022-08-24T21:12:56.727Z,25.10
2022-08-24T21:15:24.726Z,25.00
2022-08-24T21:17:52.765Z,25.00
2022-08-24T21:20:21.921Z,25.00
2022-08-24T21:22:50.181Z,25.00
2022-08-24T21:25:18.507Z,25.00
2022-08-24T21:27:49.192Z,25.00
2022-08-24T21:30:22.287Z,25.00
2022-08-24T21:33:07.916Z,25.00
2022-08-24T21:35:37.266Z,25.00
2022-08-24T21:38:06.027Z,25.00
2022-08-24T21:40:36.129Z,25.00
2022-08-24T21:43:14.528Z,25.00
2022-08-24T21:45:44.902Z,25.00
2022-08-24T21:48:13.004Z,25.00
2022-08-24T21:50:40.955Z,25.00
2022-08-24T21:53:09.150Z,24.90
2022-08-24T21:55:37.799Z,24.90
2022-08-24T21:58:06.033Z,24.90
2022-08-24T22:00:35.222Z,24.90
2022-08-24T22:03:05.177Z,24.90
2022-08-24T22:05:33.416Z,24.80
2022-08-24T22:08:01.414Z,24.80
2022-08-24T22:10:30.749Z,24.80
2022-08-24T22:13:03.822Z,24.80
2022-08-24T22:15:33.646Z,24.80
2022-08-24T22:18:01.777Z,24.70
2022-08-24T22:20:31.046Z,24.70
2022-08-24T22:22:59.396Z,24.70
2022-08-24T22:25:27.499Z,24.60
2022-08-24T22:27:55.490Z,24.60
2022-08-24T22:30:23.587Z,24.50
2022-08-24T22:32:51.665Z,24.50
2022-08-24T22:35:19.738Z,24.50
2022-08-24T22:37:49.108Z,24.40
2022-08-24T22:40:17.388Z,24.40
2022-08-24T22:42:47.086Z,24.30
2022-08-24T22:45:15.637Z,24.30
2022-08-24T22:47:43.587Z,24.20
2022-08-24T22:50:11.728Z,24.20
2022-08-24T22:52:39.807Z,24.20
2022-08-24T22:55:10.525Z,24.10
2022-08-24T22:57:38.524Z,24.10
2022-08-24T23:00:07.889Z,24.00
2022-08-24T23:02:37.280Z,24.00
2022-08-24T23:05:06.101Z,24.00
2022-08-24T23:07:35.347Z,23.90
2022-08-24T23:10:03.715Z,23.90
2022-08-24T23:12:33.032Z,23.90
2022-08-24T23:15:01.299Z,23.80
2022-08-24T23:17:29.256Z,23.80
2022-08-24T23:20:05.698Z,23.70
2022-08-24T23:22:35.833Z,23.70
2022-08-24T23:25:05.095Z,23.60
2022-08-24T23:27:38.160Z,23.50
2022-08-24T23:30:09.423Z,23.50
2022-08-24T23:32:37.546Z,23.50
2022-08-24T23:35:06.456Z,23.40
2022-08-24T23:37:34.500Z,23.40
2022-08-24T23:40:03.149Z,23.30
2022-08-24T23:42:31.084Z,23.30
2022-08-24T23:45:00.407Z,23.20
2022-08-24T23:47:28.960Z,23.20
2022-08-24T23:49:57.068Z,23.20
2022-08-24T23:52:28.397Z,23.20
2022-08-24T23:55:15.623Z,23.20
2022-08-24T23:57:46.706Z,23.10
